• Join FlightAware (Why Join?)
  • Login
  • US Flag 
06:11AM EDT


 

Airport Tracker/Info


-or-


 

Live Flight TrackerFlight Track Log ✈ VH-IGQ ✈ 28-Apr-2013 ✈ YSWG / WGA - YSBK / BWU

Flight Track Log - Related Links

Times and Time Zones

All times are in EDT time to prevent confusion due to time zone crossing. See the VH-IGQ flight status page for this flight to view local times or setup timezone preferences in your user account.

Time Position Orientation Groundspeed Altitude Reporting Facility
EDT Latitude Longitude Course Direction KTS MPH feet Rate Location/Type
10:05PM -35.1224 147.5984 64° Northeast 118 136 3,900  Level Aus ATC (RADAR)
10:05PM -35.1187 147.6078 64° Northeast 121 139 4,000 600 Climbing Aus ATC (RADAR)
10:06PM -35.1104 147.6297 65° Northeast 123 142 4,400 660 Climbing Aus ATC (RADAR)
10:07PM -35.0917 147.6676 59° Northeast 119 137 5,100 600 Climbing Aus ATC (RADAR)
10:07PM -35.0823 147.6883 61° Northeast 118 136 5,400 540 Climbing Aus ATC (RADAR)
10:08PM -35.0690 147.7194 63° Northeast 123 142 5,900 600 Climbing Aus ATC (RADAR)
10:09PM -35.0604 147.7419 65° Northeast 126 145 6,300 480 Climbing Aus ATC (RADAR)
10:10PM -35.0412 147.7878 63° Northeast 133 153 6,800 480 Climbing Aus ATC (RADAR)
10:10PM -35.0372 147.7981 65° Northeast 135 155 7,000 600 Climbing Aus ATC (RADAR)
10:11PM -35.0281 147.8217 65° Northeast 131 151 7,300 480 Climbing Aus ATC (RADAR)
10:12PM -35.0135 147.8717 70° East 135 155 7,900 360 Climbing Aus ATC (RADAR)
10:12PM -35.0054 147.8969 69° East 135 155 8,000 240 Climbing Aus ATC (RADAR)
10:13PM -34.9940 147.9435 73° East 144 166 8,300 360 Climbing Aus ATC (RADAR)
10:14PM -34.9867 147.9712 72° East 145 167 8,600 480 Climbing Aus ATC (RADAR)
10:15PM -34.9701 148.0173 66° East 151 174 9,100 240 Climbing Aus ATC (RADAR)
10:15PM -34.9653 148.0298 65° Northeast 156 180 8,900 -120 Descending Aus ATC (RADAR)
10:16PM -34.9535 148.0599 64° Northeast 167 192 9,000 60 Climbing Aus ATC (RADAR)
10:17PM -34.9303 148.1183 64° Northeast 175 201 9,000  Level Aus ATC (RADAR)
10:18PM -34.9172 148.1494 63° Northeast 173 199 9,000  Level Aus ATC (RADAR)
10:19PM -34.8933 148.2060 63° Northeast 174 200 9,000  Level Aus ATC (RADAR)
10:19PM -34.8796 148.2365 61° Northeast 174 200 9,000  Level Aus ATC (RADAR)
10:20PM -34.8517 148.3015 62° Northeast 183 211 9,000  Level Aus ATC (RADAR)
10:21PM -34.8460 148.3155 63° Northeast 184 212 9,000  Level Aus ATC (RADAR)
10:21PM -34.8326 148.3475 63° Northeast 180 207 9,000  Level Aus ATC (RADAR)
10:22PM -34.8084 148.4023 62° Northeast 181 208 9,000 -120 Level Aus ATC (RADAR)
10:23PM -34.7945 148.4344 62° Northeast 181 208 8,900 -120 Descending Aus ATC (RADAR)
10:24PM -34.7705 148.4897 62° Northeast 182 209 8,900 -120 Level Aus ATC (RADAR)
10:24PM -34.7562 148.5214 61° Northeast 180 207 8,800 60 Descending Aus ATC (RADAR)
10:25PM -34.7323 148.5822 65° Northeast 182 209 9,000 120 Climbing Aus ATC (RADAR)
10:26PM -34.7271 148.5965 66° East 182 209 9,000  Level Aus ATC (RADAR)
10:26PM -34.7171 148.6251 67° East 182 209 9,000  Level Aus ATC (RADAR)
10:27PM -34.6964 148.6822 66° East 182 209 9,000  Level Aus ATC (RADAR)
10:28PM -34.6807 148.7185 62° Northeast 179 206 9,000  Level Aus ATC (RADAR)
10:29PM -34.6531 148.7827 62° Northeast 183 211 9,000 -120 Level Aus ATC (RADAR)
10:30PM -34.6310 148.8329 62° Northeast 182 209 8,800 -180 Descending Aus ATC (RADAR)
10:31PM -34.6152 148.8700 63° Northeast 184 212 8,800  Level Aus ATC (RADAR)
10:31PM -34.6091 148.8836 61° Northeast 183 211 8,800 120 Level Aus ATC (RADAR)
10:31PM -34.5954 148.9157 63° Northeast 180 207 8,900 120 Climbing Aus ATC (RADAR)
10:32PM -34.5738 148.9654 62° Northeast 179 206 9,000 60 Climbing Aus ATC (RADAR)
10:33PM -34.5615 148.9922 61° Northeast 178 205 9,000 -60 Level Aus ATC (RADAR)
10:34PM -34.5240 149.0790 62° Northeast 182 209 8,900 -60 Descending Aus ATC (RADAR)
10:36PM -34.4919 149.1520 62° Northeast 180 207 8,900  Level Aus ATC (RADAR)
10:37PM -34.4721 149.1979 62° Northeast 182 209 9,000  Climbing Aus ATC (RADAR)
10:38PM -34.4474 149.2521 61° Northeast 181 208 9,000 -120 Level Aus ATC (RADAR)
10:38PM -34.4336 149.2843 63° Northeast 181 208 8,900 -120 Descending Aus ATC (RADAR)
10:39PM -34.4099 149.3386 62° Northeast 180 207 8,900  Level Aus ATC (RADAR)
10:40PM -34.3874 149.3880 61° Northeast 180 207 8,900  Level Aus ATC (RADAR)
10:41PM -34.3712 149.4245 62° Northeast 183 211 8,900  Level Aus ATC (RADAR)
10:41PM -34.3655 149.4390 65° Northeast 184 212 8,900  Level Aus ATC (RADAR)
10:42PM -34.3512 149.4703 61° Northeast 179 206 8,900 120 Level Aus ATC (RADAR)
10:43PM -34.3270 149.5253 62° Northeast 182 209 9,100 60 Climbing Aus ATC (RADAR)
10:43PM -34.3125 149.5567 61° Northeast 180 207 9,000 -120 Descending Aus ATC (RADAR)
10:44PM -34.2899 149.6070 61° Northeast 182 209 9,000 -120 Level Aus ATC (RADAR)
10:45PM -34.2759 149.6397 63° Northeast 184 212 8,900 -180 Descending Aus ATC (RADAR)
10:46PM -34.2505 149.6962 61° Northeast 186 214 8,800  Descending Aus ATC (RADAR)
10:46PM -34.2444 149.7102 62° Northeast 186 214 8,900 120 Climbing Aus ATC (RADAR)
10:46PM -34.2299 149.7428 62° Northeast 184 212 8,900  Level Aus ATC (RADAR)
10:47PM -34.2072 149.7931 61° Northeast 181 208 8,900  Level Aus ATC (RADAR)
10:48PM -34.1925 149.8256 61° Northeast 186 214 8,900 -120 Level Aus ATC (RADAR)
10:49PM -34.1698 149.8762 62° Northeast 183 211 8,800 -120 Descending Aus ATC (RADAR)
10:49PM -34.1554 149.9088 62° Northeast 185 213 8,800  Level Aus ATC (RADAR)
10:51PM -34.1245 149.9777 62° Northeast 183 211 8,900 60 Climbing Aus ATC (RADAR)
10:51PM -34.1186 149.9914 63° Northeast 182 209 8,900  Level Aus ATC (RADAR)
10:52PM -34.1039 150.0226 60° Northeast 181 208 8,900  Level Aus ATC (RADAR)
10:53PM -34.0742 150.0896 62° Northeast 177 204 8,900  Level Aus ATC (RADAR)
10:53PM -34.0579 150.1248 61° Northeast 178 205 9,000  Climbing Aus ATC (RADAR)
10:54PM -34.0383 150.1689 62° Northeast 173 199 8,900 -180 Descending Aus ATC (RADAR)
10:55PM -34.0242 150.1999 61° Northeast 177 204 8,800 -60 Descending Aus ATC (RADAR)
10:56PM -33.9987 150.2554 61° Northeast 172 198 8,800  Level Aus ATC (RADAR)
10:56PM -33.9925 150.2685 60° Northeast 175 201 8,800 -240 Level Aus ATC (RADAR)
10:57PM -33.9797 150.3008 64° Northeast 179 206 8,600 -600 Descending Aus ATC (RADAR)
10:58PM -33.9507 150.3602 60° Northeast 188 216 7,800 -720 Descending Aus ATC (RADAR)
10:58PM -33.9367 150.3952 64° Northeast 191 220 7,400 -600 Descending Aus ATC (RADAR)
10:59PM -33.9318 150.4505 84° East 184 212 6,900 -780 Descending Aus ATC (RADAR)
11:00PM -33.9345 150.4871 95° East 182 209 6,300 -960 Descending Aus ATC (RADAR)
11:01PM -33.9344 150.5558 90° East 183 211 5,300 -900 Descending Aus ATC (RADAR)
11:01PM -33.9337 150.5716 87° East 183 211 5,100 -900 Descending Aus ATC (RADAR)
11:02PM -33.9337 150.6143 90° East 184 212 4,500 -1,020 Descending Aus ATC (RADAR)
11:03PM -33.9337 150.6622 90° East 182 209 3,700 -1,020 Descending Aus ATC (RADAR)
11:03PM -33.9337 150.6997 90° East 186 214 3,200 -660 Descending Aus ATC (RADAR)
11:05PM -33.9351 150.7754 91° East 173 199 2,500 -480 Descending Aus ATC (RADAR)
11:05PM -33.9364 150.8087 93° East 166 191 2,400 -480 Descending Aus ATC (RADAR)
11:06PM -33.9403 150.8653 95° East 150 173 1,800 -600 Descending Aus ATC (RADAR)
11:06PM -33.9414 150.8779 96° East 147 169 1,600 -360 Descending Aus ATC (RADAR)
11:07PM -33.9344 150.9040 72° East 138 159 1,500 -60 Descending Aus ATC (RADAR)
11:08PM -33.9191 150.9457 66° East 125 144 1,500  Level Aus ATC (RADAR)
11:09PM -33.9113 150.9696 69° East 128 147 1,500 -300 Level Aus ATC (RADAR)
11:10PM -33.9089 151.0047 85° East 118 136 1,100 -420 Descending Aus ATC (RADAR)